sensor_id;sensor_type;location;lat;lon;timestamp;P1;durP1;ratioP1;P2;durP2;ratioP2
15261;SDS011;7733;51.554;13.590;2023-04-08T00:02:10;39.93;;;23.93;;
15261;SDS011;7733;51.554;13.590;2023-04-08T00:04:36;50.10;;;23.00;;
15261;SDS011;7733;51.554;13.590;2023-04-08T00:07:02;35.80;;;19.37;;
15261;SDS011;7733;51.554;13.590;2023-04-08T00:09:28;55.40;;;25.13;;
15261;SDS011;7733;51.554;13.590;2023-04-08T00:11:53;34.80;;;19.87;;
15261;SDS011;7733;51.554;13.590;2023-04-08T00:14:20;24.30;;;15.80;;
15261;SDS011;7733;51.554;13.590;2023-04-08T00:16:46;32.33;;;19.60;;
15261;SDS011;7733;51.554;13.590;2023-04-08T00:19:12;21.03;;;15.53;;
15261;SDS011;7733;51.554;13.590;2023-04-08T00:21:37;18.60;;;15.27;;
15261;SDS011;7733;51.554;13.590;2023-04-08T00:24:03;18.00;;;14.40;;
15261;SDS011;7733;51.554;13.590;2023-04-08T00:26:29;18.27;;;14.30;;
15261;SDS011;7733;51.554;13.590;2023-04-08T00:28:55;16.87;;;13.87;;
15261;SDS011;7733;51.554;13.590;2023-04-08T00:31:21;17.70;;;13.97;;
15261;SDS011;7733;51.554;13.590;2023-04-08T00:33:46;21.90;;;18.90;;
15261;SDS011;7733;51.554;13.590;2023-04-08T00:36:12;20.83;;;17.93;;
15261;SDS011;7733;51.554;13.590;2023-04-08T00:38:38;22.27;;;18.00;;
15261;SDS011;7733;51.554;13.590;2023-04-08T00:41:03;21.90;;;17.80;;
15261;SDS011;7733;51.554;13.590;2023-04-08T00:43:29;18.63;;;13.87;;
15261;SDS011;7733;51.554;13.590;2023-04-08T00:45:55;17.57;;;13.40;;
15261;SDS011;7733;51.554;13.590;2023-04-08T00:48:21;16.80;;;13.87;;
15261;SDS011;7733;51.554;13.590;2023-04-08T00:50:46;16.20;;;13.10;;
15261;SDS011;7733;51.554;13.590;2023-04-08T00:53:16;17.00;;;13.77;;
15261;SDS011;7733;51.554;13.590;2023-04-08T00:55:43;17.63;;;13.07;;
15261;SDS011;7733;51.554;13.590;2023-04-08T00:58:10;16.97;;;13.07;;
15261;SDS011;7733;51.554;13.590;2023-04-08T01:00:38;14.13;;;12.47;;
15261;SDS011;7733;51.554;13.590;2023-04-08T01:06:31;18.10;;;13.30;;
15261;SDS011;7733;51.554;13.590;2023-04-08T01:09:13;16.80;;;13.73;;
15261;SDS011;7733;51.554;13.590;2023-04-08T01:11:49;19.17;;;14.63;;
15261;SDS011;7733;51.554;13.590;2023-04-08T01:14:19;18.00;;;14.57;;
15261;SDS011;7733;51.554;13.590;2023-04-08T01:16:50;19.30;;;15.17;;
15261;SDS011;7733;51.554;13.590;2023-04-08T01:19:26;17.43;;;14.60;;
15261;SDS011;7733;51.554;13.590;2023-04-08T01:21:58;18.83;;;14.23;;
15261;SDS011;7733;51.554;13.590;2023-04-08T01:24:38;17.17;;;14.33;;
15261;SDS011;7733;51.554;13.590;2023-04-08T01:27:08;18.53;;;14.57;;
15261;SDS011;7733;51.554;13.590;2023-04-08T01:29:36;18.37;;;14.60;;
15261;SDS011;7733;51.554;13.590;2023-04-08T01:32:03;19.17;;;14.27;;
15261;SDS011;7733;51.554;13.590;2023-04-08T01:34:32;17.20;;;14.10;;
15261;SDS011;7733;51.554;13.590;2023-04-08T01:37:01;17.00;;;14.10;;
15261;SDS011;7733;51.554;13.590;2023-04-08T01:39:28;17.27;;;14.03;;
15261;SDS011;7733;51.554;13.590;2023-04-08T01:41:55;17.13;;;14.60;;
15261;SDS011;7733;51.554;13.590;2023-04-08T01:44:23;15.53;;;13.43;;
15261;SDS011;7733;51.554;13.590;2023-04-08T01:46:51;15.77;;;13.60;;
15261;SDS011;7733;51.554;13.590;2023-04-08T01:49:19;15.57;;;12.57;;
15261;SDS011;7733;51.554;13.590;2023-04-08T01:51:48;14.43;;;12.57;;
15261;SDS011;7733;51.554;13.590;2023-04-08T01:54:17;15.07;;;13.20;;
15261;SDS011;7733;51.554;13.590;2023-04-08T01:56:43;14.03;;;12.53;;
15261;SDS011;7733;51.554;13.590;2023-04-08T01:59:12;13.20;;;11.83;;
15261;SDS011;7733;51.554;13.590;2023-04-08T02:01:41;13.53;;;12.13;;
15261;SDS011;7733;51.554;13.590;2023-04-08T02:04:09;13.50;;;12.10;;
15261;SDS011;7733;51.554;13.590;2023-04-08T02:06:35;14.53;;;12.77;;
15261;SDS011;7733;51.554;13.590;2023-04-08T02:09:02;12.60;;;11.40;;
15261;SDS011;7733;51.554;13.590;2023-04-08T02:11:28;12.50;;;11.00;;
15261;SDS011;7733;51.554;13.590;2023-04-08T02:13:54;13.67;;;12.37;;
15261;SDS011;7733;51.554;13.590;2023-04-08T02:16:27;12.57;;;11.23;;
15261;SDS011;7733;51.554;13.590;2023-04-08T02:19:29;12.37;;;11.07;;
15261;SDS011;7733;51.554;13.590;2023-04-08T02:22:05;12.47;;;11.17;;
15261;SDS011;7733;51.554;13.590;2023-04-08T02:24:40;12.80;;;11.43;;
15261;SDS011;7733;51.554;13.590;2023-04-08T02:27:08;13.27;;;11.87;;
15261;SDS011;7733;51.554;13.590;2023-04-08T02:29:35;12.87;;;11.43;;
15261;SDS011;7733;51.554;13.590;2023-04-08T02:32:06;13.17;;;11.80;;
15261;SDS011;7733;51.554;13.590;2023-04-08T02:34:36;12.57;;;11.27;;
15261;SDS011;7733;51.554;13.590;2023-04-08T02:37:04;11.90;;;10.70;;
15261;SDS011;7733;51.554;13.590;2023-04-08T02:39:32;12.57;;;11.30;;
15261;SDS011;7733;51.554;13.590;2023-04-08T02:41:58;12.10;;;10.90;;
15261;SDS011;7733;51.554;13.590;2023-04-08T02:44:25;11.97;;;10.97;;
15261;SDS011;7733;51.554;13.590;2023-04-08T02:46:51;11.80;;;10.70;;
15261;SDS011;7733;51.554;13.590;2023-04-08T02:49:17;13.03;;;11.70;;
15261;SDS011;7733;51.554;13.590;2023-04-08T02:51:42;12.30;;;10.93;;
15261;SDS011;7733;51.554;13.590;2023-04-08T02:54:08;11.93;;;10.77;;
15261;SDS011;7733;51.554;13.590;2023-04-08T02:56:34;12.90;;;11.47;;
15261;SDS011;7733;51.554;13.590;2023-04-08T02:58:59;12.57;;;11.27;;
15261;SDS011;7733;51.554;13.590;2023-04-08T03:01:25;12.20;;;10.90;;
15261;SDS011;7733;51.554;13.590;2023-04-08T03:03:51;12.43;;;11.00;;
15261;SDS011;7733;51.554;13.590;2023-04-08T03:06:17;12.07;;;10.97;;
15261;SDS011;7733;51.554;13.590;2023-04-08T03:08:42;12.03;;;10.93;;
15261;SDS011;7733;51.554;13.590;2023-04-08T03:11:08;12.30;;;11.03;;
15261;SDS011;7733;51.554;13.590;2023-04-08T03:13:34;11.77;;;10.57;;
15261;SDS011;7733;51.554;13.590;2023-04-08T03:16:00;11.63;;;10.43;;
15261;SDS011;7733;51.554;13.590;2023-04-08T03:18:26;12.37;;;11.17;;
15261;SDS011;7733;51.554;13.590;2023-04-08T03:20:51;12.97;;;11.53;;
15261;SDS011;7733;51.554;13.590;2023-04-08T03:23:17;13.87;;;11.87;;
15261;SDS011;7733;51.554;13.590;2023-04-08T03:25:43;13.40;;;11.97;;
15261;SDS011;7733;51.554;13.590;2023-04-08T03:28:08;13.67;;;12.00;;
15261;SDS011;7733;51.554;13.590;2023-04-08T03:30:34;16.10;;;12.63;;
15261;SDS011;7733;51.554;13.590;2023-04-08T03:33:00;19.47;;;13.83;;
15261;SDS011;7733;51.554;13.590;2023-04-08T03:35:27;17.13;;;13.47;;
15261;SDS011;7733;51.554;13.590;2023-04-08T03:37:53;19.60;;;15.30;;
15261;SDS011;7733;51.554;13.590;2023-04-08T03:40:19;19.67;;;15.10;;
15261;SDS011;7733;51.554;13.590;2023-04-08T03:42:45;25.40;;;15.57;;
15261;SDS011;7733;51.554;13.590;2023-04-08T03:45:11;21.27;;;15.10;;
15261;SDS011;7733;51.554;13.590;2023-04-08T03:47:36;16.63;;;14.77;;
15261;SDS011;7733;51.554;13.590;2023-04-08T03:50:02;21.87;;;15.03;;
15261;SDS011;7733;51.554;13.590;2023-04-08T03:52:28;27.87;;;16.70;;
15261;SDS011;7733;51.554;13.590;2023-04-08T03:54:54;22.27;;;16.50;;
15261;SDS011;7733;51.554;13.590;2023-04-08T03:57:20;23.20;;;15.90;;
15261;SDS011;7733;51.554;13.590;2023-04-08T03:59:45;23.60;;;16.43;;
15261;SDS011;7733;51.554;13.590;2023-04-08T04:02:11;32.07;;;17.40;;
15261;SDS011;7733;51.554;13.590;2023-04-08T04:04:37;25.20;;;16.83;;
15261;SDS011;7733;51.554;13.590;2023-04-08T04:07:03;30.63;;;18.40;;
15261;SDS011;7733;51.554;13.590;2023-04-08T04:09:28;20.40;;;16.67;;
15261;SDS011;7733;51.554;13.590;2023-04-08T04:11:54;22.40;;;18.00;;
15261;SDS011;7733;51.554;13.590;2023-04-08T04:14:20;18.30;;;16.13;;
15261;SDS011;7733;51.554;13.590;2023-04-08T04:16:46;27.83;;;18.63;;
15261;SDS011;7733;51.554;13.590;2023-04-08T04:19:11;29.23;;;18.27;;
15261;SDS011;7733;51.554;13.590;2023-04-08T04:21:37;23.33;;;17.47;;
15261;SDS011;7733;51.554;13.590;2023-04-08T04:24:03;23.93;;;18.93;;
15261;SDS011;7733;51.554;13.590;2023-04-08T04:26:29;26.40;;;18.20;;
15261;SDS011;7733;51.554;13.590;2023-04-08T04:28:55;21.10;;;17.83;;
15261;SDS011;7733;51.554;13.590;2023-04-08T04:31:21;29.60;;;19.40;;
15261;SDS011;7733;51.554;13.590;2023-04-08T04:33:51;28.77;;;19.30;;
15261;SDS011;7733;51.554;13.590;2023-04-08T04:36:17;22.83;;;18.03;;
15261;SDS011;7733;51.554;13.590;2023-04-08T04:38:43;22.60;;;18.57;;
15261;SDS011;7733;51.554;13.590;2023-04-08T04:41:10;25.50;;;18.93;;
15261;SDS011;7733;51.554;13.590;2023-04-08T04:43:36;26.57;;;19.20;;
15261;SDS011;7733;51.554;13.590;2023-04-08T04:46:02;27.10;;;19.20;;
15261;SDS011;7733;51.554;13.590;2023-04-08T04:48:31;27.70;;;20.00;;
15261;SDS011;7733;51.554;13.590;2023-04-08T04:50:58;26.97;;;20.70;;
15261;SDS011;7733;51.554;13.590;2023-04-08T04:53:26;28.67;;;21.97;;
15261;SDS011;7733;51.554;13.590;2023-04-08T04:55:53;23.43;;;20.43;;
15261;SDS011;7733;51.554;13.590;2023-04-08T04:58:19;30.07;;;22.20;;
15261;SDS011;7733;51.554;13.590;2023-04-08T05:00:45;28.77;;;21.73;;
15261;SDS011;7733;51.554;13.590;2023-04-08T05:03:11;24.87;;;20.73;;
15261;SDS011;7733;51.554;13.590;2023-04-08T05:05:37;26.70;;;21.83;;
15261;SDS011;7733;51.554;13.590;2023-04-08T05:08:03;28.30;;;22.67;;
15261;SDS011;7733;51.554;13.590;2023-04-08T05:10:31;29.10;;;22.70;;
15261;SDS011;7733;51.554;13.590;2023-04-08T05:12:57;31.63;;;24.20;;
15261;SDS011;7733;51.554;13.590;2023-04-08T05:17:50;31.40;;;23.43;;
15261;SDS011;7733;51.554;13.590;2023-04-08T05:20:16;28.90;;;22.13;;
15261;SDS011;7733;51.554;13.590;2023-04-08T05:22:42;30.73;;;23.90;;
15261;SDS011;7733;51.554;13.590;2023-04-08T05:25:09;29.73;;;23.47;;
15261;SDS011;7733;51.554;13.590;2023-04-08T05:27:35;32.03;;;24.13;;
15261;SDS011;7733;51.554;13.590;2023-04-08T05:30:01;30.80;;;25.23;;
15261;SDS011;7733;51.554;13.590;2023-04-08T05:32:28;31.50;;;25.23;;
15261;SDS011;7733;51.554;13.590;2023-04-08T05:34:54;32.83;;;24.90;;
15261;SDS011;7733;51.554;13.590;2023-04-08T05:37:20;33.00;;;25.10;;
15261;SDS011;7733;51.554;13.590;2023-04-08T05:39:45;33.10;;;26.70;;
15261;SDS011;7733;51.554;13.590;2023-04-08T05:42:11;29.27;;;24.63;;
15261;SDS011;7733;51.554;13.590;2023-04-08T05:44:37;29.13;;;24.43;;
15261;SDS011;7733;51.554;13.590;2023-04-08T05:47:05;29.47;;;24.90;;
15261;SDS011;7733;51.554;13.590;2023-04-08T05:49:32;30.00;;;25.57;;
15261;SDS011;7733;51.554;13.590;2023-04-08T05:51:58;33.40;;;26.23;;
15261;SDS011;7733;51.554;13.590;2023-04-08T05:54:24;31.90;;;25.60;;
15261;SDS011;7733;51.554;13.590;2023-04-08T05:56:49;31.27;;;25.47;;
15261;SDS011;7733;51.554;13.590;2023-04-08T05:59:15;32.43;;;26.67;;
15261;SDS011;7733;51.554;13.590;2023-04-08T06:01:41;33.50;;;26.40;;
15261;SDS011;7733;51.554;13.590;2023-04-08T06:04:06;32.87;;;25.60;;
15261;SDS011;7733;51.554;13.590;2023-04-08T06:06:32;30.13;;;24.87;;
15261;SDS011;7733;51.554;13.590;2023-04-08T06:08:58;31.33;;;26.27;;
15261;SDS011;7733;51.554;13.590;2023-04-08T06:11:23;33.07;;;26.73;;
15261;SDS011;7733;51.554;13.590;2023-04-08T06:13:49;32.17;;;25.87;;
15261;SDS011;7733;51.554;13.590;2023-04-08T06:16:15;31.63;;;26.37;;
15261;SDS011;7733;51.554;13.590;2023-04-08T06:18:41;32.90;;;27.43;;
15261;SDS011;7733;51.554;13.590;2023-04-08T06:21:07;30.17;;;26.00;;
15261;SDS011;7733;51.554;13.590;2023-04-08T06:23:34;34.77;;;26.87;;
15261;SDS011;7733;51.554;13.590;2023-04-08T06:26:00;32.20;;;26.17;;
15261;SDS011;7733;51.554;13.590;2023-04-08T06:28:27;35.20;;;27.33;;
15261;SDS011;7733;51.554;13.590;2023-04-08T06:30:54;34.17;;;27.30;;
15261;SDS011;7733;51.554;13.590;2023-04-08T06:33:20;33.60;;;27.27;;
15261;SDS011;7733;51.554;13.590;2023-04-08T06:35:46;36.13;;;27.60;;
15261;SDS011;7733;51.554;13.590;2023-04-08T06:38:12;33.93;;;28.30;;
15261;SDS011;7733;51.554;13.590;2023-04-08T06:40:38;37.53;;;27.83;;
15261;SDS011;7733;51.554;13.590;2023-04-08T06:43:04;35.63;;;28.40;;
15261;SDS011;7733;51.554;13.590;2023-04-08T06:45:33;32.97;;;27.67;;
15261;SDS011;7733;51.554;13.590;2023-04-08T06:48:00;31.20;;;26.23;;
15261;SDS011;7733;51.554;13.590;2023-04-08T06:50:26;35.17;;;27.93;;
15261;SDS011;7733;51.554;13.590;2023-04-08T06:52:52;36.57;;;28.17;;
15261;SDS011;7733;51.554;13.590;2023-04-08T06:55:19;33.73;;;27.70;;
15261;SDS011;7733;51.554;13.590;2023-04-08T06:57:44;35.03;;;28.67;;
15261;SDS011;7733;51.554;13.590;2023-04-08T07:00:10;34.90;;;28.20;;
15261;SDS011;7733;51.554;13.590;2023-04-08T07:02:36;33.63;;;27.53;;
15261;SDS011;7733;51.554;13.590;2023-04-08T07:05:02;31.73;;;27.00;;
15261;SDS011;7733;51.554;13.590;2023-04-08T07:07:28;38.43;;;28.43;;
15261;SDS011;7733;51.554;13.590;2023-04-08T07:09:54;30.93;;;26.37;;
15261;SDS011;7733;51.554;13.590;2023-04-08T07:12:19;35.43;;;29.13;;
15261;SDS011;7733;51.554;13.590;2023-04-08T07:14:45;30.57;;;26.83;;
15261;SDS011;7733;51.554;13.590;2023-04-08T07:17:11;33.83;;;28.17;;
15261;SDS011;7733;51.554;13.590;2023-04-08T07:19:36;32.23;;;27.67;;
15261;SDS011;7733;51.554;13.590;2023-04-08T07:22:02;33.97;;;28.33;;
15261;SDS011;7733;51.554;13.590;2023-04-08T07:24:28;31.77;;;28.30;;
15261;SDS011;7733;51.554;13.590;2023-04-08T07:26:54;34.90;;;28.43;;
15261;SDS011;7733;51.554;13.590;2023-04-08T07:29:20;32.53;;;28.20;;
15261;SDS011;7733;51.554;13.590;2023-04-08T07:31:46;32.40;;;27.83;;
15261;SDS011;7733;51.554;13.590;2023-04-08T07:34:12;31.70;;;28.30;;
15261;SDS011;7733;51.554;13.590;2023-04-08T07:36:38;32.87;;;27.77;;
15261;SDS011;7733;51.554;13.590;2023-04-08T07:39:04;31.63;;;27.13;;
15261;SDS011;7733;51.554;13.590;2023-04-08T07:41:30;29.70;;;26.43;;
15261;SDS011;7733;51.554;13.590;2023-04-08T07:43:56;30.10;;;26.87;;
15261;SDS011;7733;51.554;13.590;2023-04-08T07:46:21;28.90;;;25.90;;
15261;SDS011;7733;51.554;13.590;2023-04-08T07:48:47;29.20;;;26.10;;
15261;SDS011;7733;51.554;13.590;2023-04-08T07:51:13;28.80;;;25.73;;
15261;SDS011;7733;51.554;13.590;2023-04-08T07:53:39;28.60;;;25.50;;
15261;SDS011;7733;51.554;13.590;2023-04-08T07:56:14;28.53;;;25.10;;
15261;SDS011;7733;51.554;13.590;2023-04-08T07:58:42;28.63;;;25.63;;
15261;SDS011;7733;51.554;13.590;2023-04-08T08:01:25;27.73;;;24.80;;
15261;SDS011;7733;51.554;13.590;2023-04-08T08:03:55;28.30;;;25.10;;
15261;SDS011;7733;51.554;13.590;2023-04-08T08:06:20;26.27;;;23.67;;
15261;SDS011;7733;51.554;13.590;2023-04-08T08:08:46;26.33;;;23.57;;
15261;SDS011;7733;51.554;13.590;2023-04-08T08:11:12;25.17;;;22.67;;
15261;SDS011;7733;51.554;13.590;2023-04-08T08:13:38;25.07;;;22.57;;
15261;SDS011;7733;51.554;13.590;2023-04-08T08:16:04;24.80;;;22.40;;
15261;SDS011;7733;51.554;13.590;2023-04-08T08:18:32;24.13;;;21.73;;
15261;SDS011;7733;51.554;13.590;2023-04-08T08:21:00;24.33;;;22.00;;
15261;SDS011;7733;51.554;13.590;2023-04-08T08:23:26;22.93;;;20.70;;
15261;SDS011;7733;51.554;13.590;2023-04-08T08:26:05;24.03;;;21.67;;
15261;SDS011;7733;51.554;13.590;2023-04-08T08:28:36;24.57;;;22.33;;
15261;SDS011;7733;51.554;13.590;2023-04-08T08:31:03;22.40;;;20.30;;
15261;SDS011;7733;51.554;13.590;2023-04-08T08:33:30;22.70;;;20.50;;
15261;SDS011;7733;51.554;13.590;2023-04-08T08:35:56;21.07;;;18.97;;
15261;SDS011;7733;51.554;13.590;2023-04-08T08:38:22;18.43;;;16.63;;
15261;SDS011;7733;51.554;13.590;2023-04-08T08:40:58;13.63;;;12.53;;
15261;SDS011;7733;51.554;13.590;2023-04-08T08:43:25;15.73;;;14.40;;
15261;SDS011;7733;51.554;13.590;2023-04-08T08:45:53;14.87;;;13.47;;
15261;SDS011;7733;51.554;13.590;2023-04-08T08:48:19;15.03;;;13.73;;
15261;SDS011;7733;51.554;13.590;2023-04-08T08:50:45;15.97;;;14.30;;
15261;SDS011;7733;51.554;13.590;2023-04-08T08:53:11;16.37;;;14.80;;
15261;SDS011;7733;51.554;13.590;2023-04-08T08:55:36;16.77;;;15.27;;
15261;SDS011;7733;51.554;13.590;2023-04-08T08:58:03;16.93;;;15.43;;
15261;SDS011;7733;51.554;13.590;2023-04-08T09:00:32;16.97;;;15.47;;
15261;SDS011;7733;51.554;13.590;2023-04-08T09:03:21;18.03;;;16.43;;
15261;SDS011;7733;51.554;13.590;2023-04-08T09:05:53;18.40;;;16.70;;
15261;SDS011;7733;51.554;13.590;2023-04-08T09:08:24;19.07;;;17.33;;
15261;SDS011;7733;51.554;13.590;2023-04-08T09:11:16;19.27;;;17.47;;
15261;SDS011;7733;51.554;13.590;2023-04-08T09:13:46;18.67;;;17.07;;
15261;SDS011;7733;51.554;13.590;2023-04-08T09:16:13;20.40;;;18.50;;
15261;SDS011;7733;51.554;13.590;2023-04-08T09:18:44;19.30;;;17.60;;
15261;SDS011;7733;51.554;13.590;2023-04-08T09:21:12;19.40;;;17.73;;
15261;SDS011;7733;51.554;13.590;2023-04-08T09:23:44;18.67;;;17.07;;
15261;SDS011;7733;51.554;13.590;2023-04-08T09:26:15;18.20;;;16.43;;
15261;SDS011;7733;51.554;13.590;2023-04-08T09:31:30;18.73;;;17.07;;
15261;SDS011;7733;51.554;13.590;2023-04-08T09:34:11;18.97;;;17.37;;
15261;SDS011;7733;51.554;13.590;2023-04-08T09:36:42;18.17;;;16.67;;
15261;SDS011;7733;51.554;13.590;2023-04-08T09:39:13;19.13;;;17.47;;
15261;SDS011;7733;51.554;13.590;2023-04-08T09:41:39;18.03;;;16.53;;
15261;SDS011;7733;51.554;13.590;2023-04-08T09:44:07;17.57;;;16.07;;
15261;SDS011;7733;51.554;13.590;2023-04-08T09:52:09;17.70;;;16.13;;
15261;SDS011;7733;51.554;13.590;2023-04-08T09:54:46;16.97;;;15.47;;
15261;SDS011;7733;51.554;13.590;2023-04-08T09:57:30;17.47;;;16.00;;
15261;SDS011;7733;51.554;13.590;2023-04-08T10:00:15;17.33;;;15.93;;
15261;SDS011;7733;51.554;13.590;2023-04-08T10:05:35;17.07;;;15.67;;
15261;SDS011;7733;51.554;13.590;2023-04-08T10:08:04;19.10;;;17.23;;
15261;SDS011;7733;51.554;13.590;2023-04-08T10:10:33;18.87;;;17.17;;
15261;SDS011;7733;51.554;13.590;2023-04-08T10:13:03;19.07;;;17.47;;
15261;SDS011;7733;51.554;13.590;2023-04-08T10:15:31;19.67;;;17.97;;
15261;SDS011;7733;51.554;13.590;2023-04-08T10:23:08;19.23;;;17.60;;
15261;SDS011;7733;51.554;13.590;2023-04-08T10:25:42;18.73;;;17.23;;
15261;SDS011;7733;51.554;13.590;2023-04-08T10:35:58;17.67;;;16.27;;
15261;SDS011;7733;51.554;13.590;2023-04-08T10:38:39;17.00;;;15.60;;
15261;SDS011;7733;51.554;13.590;2023-04-08T10:41:06;15.90;;;14.43;;
15261;SDS011;7733;51.554;13.590;2023-04-08T10:43:35;13.83;;;12.73;;
15261;SDS011;7733;51.554;13.590;2023-04-08T10:46:02;15.90;;;14.60;;
15261;SDS011;7733;51.554;13.590;2023-04-08T10:48:29;14.63;;;13.37;;
15261;SDS011;7733;51.554;13.590;2023-04-08T10:50:58;14.57;;;13.33;;
15261;SDS011;7733;51.554;13.590;2023-04-08T10:53:27;14.63;;;13.50;;
15261;SDS011;7733;51.554;13.590;2023-04-08T10:56:05;15.40;;;14.17;;
15261;SDS011;7733;51.554;13.590;2023-04-08T10:58:49;15.60;;;14.40;;
15261;SDS011;7733;51.554;13.590;2023-04-08T11:01:18;15.60;;;14.37;;
15261;SDS011;7733;51.554;13.590;2023-04-08T11:03:44;16.53;;;15.23;;
15261;SDS011;7733;51.554;13.590;2023-04-08T11:06:10;16.80;;;15.40;;
15261;SDS011;7733;51.554;13.590;2023-04-08T11:08:36;16.40;;;15.00;;
15261;SDS011;7733;51.554;13.590;2023-04-08T11:11:03;16.00;;;14.70;;
15261;SDS011;7733;51.554;13.590;2023-04-08T11:13:35;14.57;;;13.37;;
15261;SDS011;7733;51.554;13.590;2023-04-08T11:16:06;15.23;;;13.93;;
15261;SDS011;7733;51.554;13.590;2023-04-08T11:18:33;14.33;;;13.13;;
15261;SDS011;7733;51.554;13.590;2023-04-08T11:21:01;13.93;;;12.73;;
15261;SDS011;7733;51.554;13.590;2023-04-08T11:23:32;15.17;;;13.90;;
15261;SDS011;7733;51.554;13.590;2023-04-08T11:25:58;12.07;;;11.17;;
15261;SDS011;7733;51.554;13.590;2023-04-08T11:28:24;12.23;;;11.20;;
15261;SDS011;7733;51.554;13.590;2023-04-08T11:30:50;12.70;;;11.60;;
15261;SDS011;7733;51.554;13.590;2023-04-08T11:33:17;12.73;;;11.73;;
15261;SDS011;7733;51.554;13.590;2023-04-08T11:35:43;12.70;;;11.60;;
15261;SDS011;7733;51.554;13.590;2023-04-08T11:38:09;13.47;;;12.37;;
15261;SDS011;7733;51.554;13.590;2023-04-08T11:40:36;12.53;;;11.43;;
15261;SDS011;7733;51.554;13.590;2023-04-08T11:43:09;12.43;;;11.43;;
15261;SDS011;7733;51.554;13.590;2023-04-08T11:45:39;13.07;;;11.97;;
15261;SDS011;7733;51.554;13.590;2023-04-08T11:48:09;12.63;;;11.63;;
15261;SDS011;7733;51.554;13.590;2023-04-08T11:50:38;12.33;;;11.33;;
15261;SDS011;7733;51.554;13.590;2023-04-08T11:53:23;11.70;;;10.80;;
15261;SDS011;7733;51.554;13.590;2023-04-08T11:55:50;11.40;;;10.50;;
15261;SDS011;7733;51.554;13.590;2023-04-08T11:58:16;12.27;;;11.27;;
15261;SDS011;7733;51.554;13.590;2023-04-08T12:00:42;12.60;;;11.60;;
15261;SDS011;7733;51.554;13.590;2023-04-08T12:03:09;11.97;;;11.07;;
15261;SDS011;7733;51.554;13.590;2023-04-08T12:05:36;12.23;;;11.27;;
15261;SDS011;7733;51.554;13.590;2023-04-08T12:08:02;12.80;;;11.83;;
15261;SDS011;7733;51.554;13.590;2023-04-08T12:10:29;13.33;;;12.23;;
15261;SDS011;7733;51.554;13.590;2023-04-08T12:12:54;13.03;;;12.03;;
15261;SDS011;7733;51.554;13.590;2023-04-08T12:15:20;14.43;;;13.27;;
15261;SDS011;7733;51.554;13.590;2023-04-08T12:17:46;14.17;;;12.97;;
15261;SDS011;7733;51.554;13.590;2023-04-08T12:20:12;12.67;;;11.67;;
15261;SDS011;7733;51.554;13.590;2023-04-08T12:22:38;13.60;;;12.50;;
15261;SDS011;7733;51.554;13.590;2023-04-08T12:25:04;13.67;;;12.57;;
15261;SDS011;7733;51.554;13.590;2023-04-08T12:27:30;14.60;;;13.40;;
15261;SDS011;7733;51.554;13.590;2023-04-08T12:30:00;13.80;;;12.80;;
15261;SDS011;7733;51.554;13.590;2023-04-08T12:32:27;13.77;;;12.67;;
15261;SDS011;7733;51.554;13.590;2023-04-08T12:34:53;15.30;;;13.87;;
15261;SDS011;7733;51.554;13.590;2023-04-08T12:37:19;14.00;;;12.90;;
15261;SDS011;7733;51.554;13.590;2023-04-08T12:39:45;14.83;;;13.63;;
15261;SDS011;7733;51.554;13.590;2023-04-08T12:42:11;15.60;;;14.40;;
15261;SDS011;7733;51.554;13.590;2023-04-08T12:44:38;14.60;;;13.40;;
15261;SDS011;7733;51.554;13.590;2023-04-08T12:47:04;14.70;;;13.50;;
15261;SDS011;7733;51.554;13.590;2023-04-08T12:49:30;15.40;;;14.10;;
15261;SDS011;7733;51.554;13.590;2023-04-08T12:51:55;15.57;;;14.17;;
15261;SDS011;7733;51.554;13.590;2023-04-08T12:54:21;15.67;;;14.47;;
15261;SDS011;7733;51.554;13.590;2023-04-08T12:56:47;17.40;;;15.87;;
15261;SDS011;7733;51.554;13.590;2023-04-08T12:59:13;15.80;;;14.50;;
15261;SDS011;7733;51.554;13.590;2023-04-08T13:01:39;15.90;;;14.60;;
15261;SDS011;7733;51.554;13.590;2023-04-08T13:04:05;16.03;;;14.73;;
15261;SDS011;7733;51.554;13.590;2023-04-08T13:06:31;15.50;;;14.10;;
15261;SDS011;7733;51.554;13.590;2023-04-08T13:08:57;14.60;;;13.40;;
15261;SDS011;7733;51.554;13.590;2023-04-08T13:11:22;14.57;;;13.47;;
15261;SDS011;7733;51.554;13.590;2023-04-08T13:13:48;15.13;;;13.90;;
15261;SDS011;7733;51.554;13.590;2023-04-08T13:16:14;15.70;;;14.30;;
15261;SDS011;7733;51.554;13.590;2023-04-08T13:18:40;15.00;;;13.80;;
15261;SDS011;7733;51.554;13.590;2023-04-08T13:21:07;15.10;;;13.80;;
15261;SDS011;7733;51.554;13.590;2023-04-08T13:23:33;13.60;;;12.50;;
15261;SDS011;7733;51.554;13.590;2023-04-08T13:25:59;13.00;;;12.00;;
15261;SDS011;7733;51.554;13.590;2023-04-08T13:28:25;12.73;;;11.73;;
15261;SDS011;7733;51.554;13.590;2023-04-08T13:30:51;13.47;;;12.30;;
15261;SDS011;7733;51.554;13.590;2023-04-08T13:33:17;12.03;;;11.03;;
15261;SDS011;7733;51.554;13.590;2023-04-08T13:35:43;11.70;;;10.80;;
15261;SDS011;7733;51.554;13.590;2023-04-08T13:38:09;11.50;;;10.60;;
15261;SDS011;7733;51.554;13.590;2023-04-08T13:40:35;11.37;;;10.53;;
15261;SDS011;7733;51.554;13.590;2023-04-08T13:43:01;10.67;;;9.87;;
15261;SDS011;7733;51.554;13.590;2023-04-08T13:45:27;11.40;;;10.50;;
15261;SDS011;7733;51.554;13.590;2023-04-08T13:47:53;11.93;;;11.03;;
15261;SDS011;7733;51.554;13.590;2023-04-08T13:50:19;11.00;;;10.10;;
15261;SDS011;7733;51.554;13.590;2023-04-08T13:52:45;11.00;;;10.10;;
15261;SDS011;7733;51.554;13.590;2023-04-08T13:55:10;10.40;;;9.60;;
15261;SDS011;7733;51.554;13.590;2023-04-08T13:57:36;10.70;;;9.90;;
15261;SDS011;7733;51.554;13.590;2023-04-08T14:00:02;11.60;;;10.70;;
15261;SDS011;7733;51.554;13.590;2023-04-08T14:02:29;11.30;;;10.40;;
15261;SDS011;7733;51.554;13.590;2023-04-08T14:04:55;12.13;;;11.23;;
15261;SDS011;7733;51.554;13.590;2023-04-08T14:07:21;11.67;;;10.77;;
15261;SDS011;7733;51.554;13.590;2023-04-08T14:09:47;10.90;;;10.10;;
15261;SDS011;7733;51.554;13.590;2023-04-08T14:12:13;11.57;;;10.57;;
15261;SDS011;7733;51.554;13.590;2023-04-08T14:14:38;11.87;;;10.87;;
15261;SDS011;7733;51.554;13.590;2023-04-08T14:17:04;10.47;;;9.57;;
15261;SDS011;7733;51.554;13.590;2023-04-08T14:19:30;11.60;;;10.60;;
15261;SDS011;7733;51.554;13.590;2023-04-08T14:21:56;10.97;;;10.07;;
15261;SDS011;7733;51.554;13.590;2023-04-08T14:24:21;11.77;;;10.77;;
15261;SDS011;7733;51.554;13.590;2023-04-08T14:26:47;11.73;;;10.63;;
15261;SDS011;7733;51.554;13.590;2023-04-08T14:29:13;12.10;;;11.10;;
15261;SDS011;7733;51.554;13.590;2023-04-08T14:31:39;12.17;;;11.07;;
15261;SDS011;7733;51.554;13.590;2023-04-08T14:34:04;11.73;;;10.73;;
15261;SDS011;7733;51.554;13.590;2023-04-08T14:36:30;11.37;;;10.40;;
15261;SDS011;7733;51.554;13.590;2023-04-08T14:38:56;12.30;;;11.10;;
15261;SDS011;7733;51.554;13.590;2023-04-08T14:41:23;12.63;;;11.53;;
15261;SDS011;7733;51.554;13.590;2023-04-08T14:43:51;12.57;;;11.37;;
15261;SDS011;7733;51.554;13.590;2023-04-08T14:46:18;12.83;;;11.57;;
15261;SDS011;7733;51.554;13.590;2023-04-08T14:48:44;13.17;;;11.97;;
15261;SDS011;7733;51.554;13.590;2023-04-08T14:51:10;12.63;;;11.53;;
15261;SDS011;7733;51.554;13.590;2023-04-08T14:53:36;12.20;;;11.20;;